createdAt,value
2019-01-05T00:00:10.500Z,12.90
2019-01-05T00:02:38.303Z,15.03
2019-01-05T00:05:35.976Z,14.90
2019-01-05T00:08:03.628Z,13.10
2019-01-05T00:12:37.430Z,14.73
2019-01-05T00:15:07.996Z,15.40
2019-01-05T00:17:35.897Z,14.87
2019-01-05T00:20:09.595Z,14.87
2019-01-05T00:22:41.428Z,14.97
2019-01-05T00:25:09.407Z,14.83
2019-01-05T00:27:36.233Z,15.43
2019-01-05T00:30:05.950Z,14.07
2019-01-05T00:32:39.101Z,13.10
2019-01-05T00:35:06.826Z,15.83
2019-01-05T00:37:34.655Z,14.80
2019-01-05T00:40:05.655Z,16.27
2019-01-05T00:42:41.416Z,12.87
2019-01-05T00:45:14.391Z,15.33
2019-01-05T00:47:43.167Z,15.70
2019-01-05T00:50:11.224Z,14.50
2019-01-05T00:52:39.179Z,14.83
2019-01-05T00:55:09.947Z,15.63
2019-01-05T00:57:36.948Z,14.20
2019-01-05T01:02:05.856Z,14.43
2019-01-05T01:04:33.721Z,16.63
2019-01-05T01:07:02.443Z,15.53
2019-01-05T01:09:30.262Z,15.83
2019-01-05T01:11:58.123Z,14.43
2019-01-05T01:14:25.920Z,15.13
2019-01-05T01:17:58.935Z,16.63
2019-01-05T01:20:28.632Z,14.47
2019-01-05T01:22:55.497Z,15.33
2019-01-05T01:27:24.279Z,15.73
2019-01-05T01:29:51.115Z,15.53
2019-01-05T01:34:24.826Z,16.23
2019-01-05T01:36:55.664Z,15.87
2019-01-05T01:39:28.107Z,16.87
2019-01-05T01:44:01.888Z,16.00
2019-01-05T01:46:28.732Z,12.83
2019-01-05T01:48:56.577Z,16.63
2019-01-05T01:51:23.396Z,16.23
2019-01-05T01:53:53.203Z,17.43
2019-01-05T01:56:23.964Z,16.40
2019-01-05T01:58:53.524Z,15.53
2019-01-05T02:01:24.137Z,16.30
2019-01-05T02:04:22.835Z,17.40
2019-01-05T02:06:50.587Z,14.47
2019-01-05T02:09:22.353Z,15.50
2019-01-05T02:11:55.039Z,14.40
2019-01-05T02:14:23.763Z,15.27
2019-01-05T02:17:02.875Z,15.70
2019-01-05T02:19:49.724Z,16.17
2019-01-05T02:24:48.674Z,15.83
2019-01-05T02:28:32.864Z,15.90
2019-01-05T02:33:20.404Z,14.83
2019-01-05T02:36:00.465Z,15.37
2019-01-05T02:38:45.281Z,17.80
2019-01-05T02:41:55.942Z,15.93
2019-01-05T02:45:32.076Z,15.90
2019-01-05T02:50:16.980Z,15.83
2019-01-05T02:53:57.788Z,17.37
2019-01-05T02:56:38.748Z,16.63
2019-01-05T03:00:23.070Z,16.30
2019-01-05T03:04:05.637Z,16.57
2019-01-05T03:06:47.576Z,15.33
2019-01-05T03:09:29.589Z,14.93
2019-01-05T03:14:15.375Z,16.07
2019-01-05T03:17:09.956Z,15.10
2019-01-05T03:19:53.585Z,15.27
2019-01-05T03:23:30.293Z,16.73
2019-01-05T03:28:13.721Z,15.80
2019-01-05T03:32:55.744Z,12.80
2019-01-05T03:35:39.301Z,15.47
2019-01-05T03:38:47.794Z,15.20
2019-01-05T03:41:27.594Z,14.83
2019-01-05T03:44:05.867Z,14.87
2019-01-05T03:46:51.881Z,15.10
2019-01-05T03:49:31.468Z,14.93
2019-01-05T03:54:21.456Z,16.00
2019-01-05T03:57:16.470Z,15.77
2019-01-05T04:00:28.967Z,15.07
2019-01-05T04:03:10.867Z,16.40
2019-01-05T04:05:51.384Z,14.70
2019-01-05T04:08:34.980Z,14.63
2019-01-05T04:11:31.710Z,15.27
2019-01-05T04:14:15.620Z,14.63
2019-01-05T04:16:57.621Z,16.80
2019-01-05T04:22:48.316Z,16.17
2019-01-05T04:25:28.223Z,17.77
2019-01-05T04:30:15.296Z,17.57
2019-01-05T04:33:10.278Z,16.27
2019-01-05T04:35:53.703Z,15.77
2019-01-05T04:38:34.890Z,18.20
2019-01-05T04:43:54.730Z,16.23
2019-01-05T04:46:36.514Z,16.00
2019-01-05T04:49:50.703Z,16.57
2019-01-05T04:52:34.696Z,16.90
2019-01-05T04:55:24.635Z,16.77
2019-01-05T05:00:11.505Z,16.90
2019-01-05T05:04:51.881Z,15.00
2019-01-05T05:09:41.497Z,15.67
2019-01-05T05:15:30.259Z,14.57
2019-01-05T05:19:02.819Z,15.23
2019-01-05T05:21:43.947Z,15.47
2019-01-05T05:26:33.063Z,14.73
2019-01-05T05:29:18.048Z,15.53
2019-01-05T05:34:03.439Z,14.87
2019-01-05T05:37:00.381Z,15.73
2019-01-05T05:39:43.151Z,15.80
2019-01-05T05:42:23.963Z,16.73
2019-01-05T05:45:09.241Z,14.67
2019-01-05T05:47:56.828Z,17.43
2019-01-05T05:50:34.835Z,14.73
2019-01-05T05:53:14.959Z,16.63
2019-01-05T05:56:08.465Z,15.87
2019-01-05T05:59:56.371Z,17.17
2019-01-05T06:02:40.155Z,16.27
2019-01-05T06:05:19.150Z,16.20
2019-01-05T06:08:21.156Z,16.83
2019-01-05T06:10:59.055Z,16.70
2019-01-05T06:13:57.146Z,16.40
2019-01-05T06:16:38.883Z,15.20
2019-01-05T06:19:19.578Z,17.70
2019-01-05T06:21:57.842Z,17.93
2019-01-05T06:24:47.671Z,16.40
2019-01-05T06:27:35.495Z,15.17
2019-01-05T06:30:19.234Z,17.90
2019-01-05T06:32:58.353Z,17.43
2019-01-05T06:36:09.328Z,15.90
2019-01-05T06:39:02.373Z,15.63
2019-01-05T06:43:45.382Z,16.93
2019-01-05T06:46:33.303Z,15.90
2019-01-05T06:51:46.407Z,17.97
2019-01-05T06:54:30.127Z,13.60
2019-01-05T06:59:16.851Z,15.17
2019-01-05T07:02:08.390Z,15.80
2019-01-05T07:04:49.255Z,15.23
2019-01-05T07:08:36.261Z,15.77
2019-01-05T07:11:32.421Z,12.20
2019-01-05T07:14:18.245Z,14.23
2019-01-05T07:16:57.157Z,14.97
2019-01-05T07:20:12.122Z,14.00
2019-01-05T07:24:56.199Z,14.17
2019-01-05T07:27:36.351Z,12.50
2019-01-05T07:32:37.172Z,13.83
2019-01-05T07:35:16.533Z,14.53
2019-01-05T07:40:01.556Z,13.57
2019-01-05T07:44:45.724Z,11.00
2019-01-05T07:47:41.034Z,12.90
2019-01-05T07:50:40.663Z,12.77
2019-01-05T07:53:24.016Z,13.30
2019-01-05T07:56:05.973Z,11.27
2019-01-05T07:58:51.192Z,13.20
2019-01-05T08:01:29.300Z,11.67
2019-01-05T08:04:09.823Z,12.77
2019-01-05T08:06:56.003Z,10.90
2019-01-05T08:13:40.918Z,13.03
2019-01-05T08:16:48.783Z,11.57
2019-01-05T08:21:35.555Z,11.47
2019-01-05T08:24:18.540Z,11.10
2019-01-05T08:27:12.376Z,10.77
2019-01-05T08:30:25.163Z,10.00
2019-01-05T08:33:12.828Z,8.80
2019-01-05T08:36:59.834Z,10.30
2019-01-05T08:41:44.153Z,9.90
2019-01-05T08:46:38.085Z,9.23
2019-01-05T08:51:22.255Z,8.90
2019-01-05T08:58:04.223Z,8.87
2019-01-05T09:00:45.314Z,7.40
2019-01-05T09:03:53.436Z,8.50
2019-01-05T09:06:44.345Z,8.20
2019-01-05T09:10:27.572Z,8.17
2019-01-05T09:14:11.517Z,7.80
2019-01-05T09:16:48.488Z,7.30
2019-01-05T09:20:19.657Z,8.37
2019-01-05T09:23:04.035Z,7.83
2019-01-05T09:25:59.016Z,8.23
2019-01-05T09:28:40.110Z,8.20
2019-01-05T09:33:20.185Z,9.30
2019-01-05T09:35:59.447Z,9.33
2019-01-05T09:38:57.149Z,8.87
2019-01-05T09:41:45.048Z,7.87
2019-01-05T09:47:29.804Z,8.67
2019-01-05T09:52:15.957Z,8.10
2019-01-05T09:55:59.901Z,8.37
2019-01-05T09:58:51.505Z,8.40
2019-01-05T10:02:02.290Z,8.47
2019-01-05T10:06:44.188Z,7.77
2019-01-05T10:11:26.346Z,8.13
2019-01-05T10:16:10.419Z,6.63
2019-01-05T10:19:00.563Z,7.37
2019-01-05T10:23:48.553Z,7.50
2019-01-05T10:26:28.111Z,7.87
2019-01-05T10:29:07.032Z,6.23
2019-01-05T10:32:37.437Z,6.70
2019-01-05T10:35:23.292Z,6.23
2019-01-05T10:38:13.119Z,6.50
2019-01-05T10:41:45.747Z,6.10
2019-01-05T10:46:27.263Z,5.30
2019-01-05T10:49:29.110Z,5.00
2019-01-05T10:54:08.741Z,5.37
2019-01-05T11:00:55.037Z,4.90
2019-01-05T11:03:33.971Z,4.37
2019-01-05T11:06:24.535Z,4.97
2019-01-05T11:09:07.551Z,4.30
2019-01-05T11:12:15.076Z,4.87
2019-01-05T11:14:58.852Z,4.13
2019-01-05T11:17:43.583Z,3.60
2019-01-05T11:20:36.011Z,4.20
2019-01-05T11:23:31.253Z,3.67
2019-01-05T11:26:14.227Z,3.87
2019-01-05T11:28:56.376Z,3.57
2019-01-05T11:34:13.943Z,3.57
2019-01-05T11:38:54.972Z,3.47
2019-01-05T11:41:34.248Z,3.90
2019-01-05T11:44:18.979Z,3.70
2019-01-05T11:49:14.165Z,3.30
2019-01-05T11:51:59.102Z,3.57
2019-01-05T11:56:39.059Z,3.60
2019-01-05T12:01:32.144Z,3.53
2019-01-05T12:08:19.632Z,3.60
2019-01-05T12:11:32.487Z,2.90
2019-01-05T12:14:11.159Z,3.40
2019-01-05T12:18:52.404Z,3.40
2019-01-05T12:23:38.548Z,3.47
2019-01-05T12:27:29.248Z,3.47
2019-01-05T12:30:08.263Z,3.20
2019-01-05T12:32:45.104Z,3.87
2019-01-05T12:36:33.265Z,3.00
2019-01-05T12:40:22.896Z,3.30
2019-01-05T12:43:02.128Z,4.10
2019-01-05T12:47:46.117Z,3.23
2019-01-05T12:50:31.705Z,3.00
2019-01-05T12:53:09.824Z,3.70
2019-01-05T12:57:53.888Z,3.50
2019-01-05T13:00:36.907Z,2.97
2019-01-05T13:03:34.476Z,3.60
2019-01-05T13:06:25.364Z,3.37
2019-01-05T13:10:10.343Z,3.10
2019-01-05T13:14:01.019Z,2.77
2019-01-05T13:16:40.421Z,3.00
2019-01-05T13:19:37.379Z,3.40
2019-01-05T13:24:31.116Z,3.00
2019-01-05T13:29:15.211Z,2.70
2019-01-05T13:31:53.550Z,2.53
2019-01-05T13:35:30.035Z,2.80
2019-01-05T13:38:09.524Z,2.83
2019-01-05T13:41:07.416Z,2.47
2019-01-05T13:44:24.123Z,2.20
2019-01-05T13:49:12.214Z,2.30
2019-01-05T13:52:00.923Z,2.40
2019-01-05T13:54:28.695Z,2.90
2019-01-05T13:57:19.638Z,2.30
2019-01-05T13:59:47.609Z,2.70
2019-01-05T14:02:16.398Z,2.80
2019-01-05T14:04:43.212Z,2.57
2019-01-05T14:07:10.937Z,2.90
2019-01-05T14:09:38.699Z,2.67
2019-01-05T14:12:05.497Z,2.70
2019-01-05T14:16:38.243Z,2.67
2019-01-05T14:19:06.027Z,2.80
2019-01-05T14:21:37.683Z,2.90
2019-01-05T14:24:06.354Z,2.60
2019-01-05T14:28:36.374Z,2.80
2019-01-05T14:33:08.168Z,2.43
2019-01-05T14:35:36.016Z,2.73
2019-01-05T14:38:02.820Z,2.60
2019-01-05T14:40:30.771Z,2.73
2019-01-05T14:43:00.572Z,2.70
2019-01-05T14:47:35.347Z,2.63
2019-01-05T14:50:05.937Z,2.80
2019-01-05T14:52:33.559Z,2.80
2019-01-05T14:55:12.376Z,2.67
2019-01-05T14:57:44.134Z,3.20
2019-01-05T15:00:13.443Z,2.70
2019-01-05T15:02:40.240Z,2.73
2019-01-05T15:05:09.445Z,2.90
2019-01-05T15:07:41.645Z,2.90
2019-01-05T15:10:10.587Z,2.57
2019-01-05T15:12:40.366Z,2.80
2019-01-05T15:15:07.226Z,2.90
2019-01-05T15:18:38.082Z,3.00
2019-01-05T15:21:06.052Z,2.57
2019-01-05T15:23:39.644Z,2.87
2019-01-05T15:26:11.374Z,2.70
2019-01-05T15:28:53.139Z,2.27
2019-01-05T15:31:21.072Z,2.63
2019-01-05T15:34:51.967Z,2.43
2019-01-05T15:37:25.693Z,2.77
2019-01-05T15:39:53.496Z,2.80
2019-01-05T15:42:21.324Z,2.33
2019-01-05T15:44:49.195Z,2.40
2019-01-05T15:47:28.850Z,2.33
2019-01-05T15:49:56.768Z,2.67
2019-01-05T15:52:27.412Z,2.47
2019-01-05T15:55:09.224Z,2.90
2019-01-05T15:57:38.987Z,2.73
2019-01-05T16:02:12.873Z,2.90
2019-01-05T16:06:45.655Z,2.97
2019-01-05T16:09:13.482Z,2.90
2019-01-05T16:11:46.139Z,3.07
2019-01-05T16:14:13.876Z,3.10
2019-01-05T16:16:46.451Z,3.10
2019-01-05T16:19:13.239Z,3.53
2019-01-05T16:21:48.951Z,2.73
2019-01-05T16:24:16.802Z,3.27
2019-01-05T16:27:14.454Z,2.97
2019-01-05T16:29:42.253Z,2.70
2019-01-05T16:32:09.057Z,2.90
2019-01-05T16:34:36.972Z,3.10
2019-01-05T16:37:04.776Z,2.93
2019-01-05T16:40:02.515Z,3.27
2019-01-05T16:42:31.115Z,2.87
2019-01-05T16:45:00.764Z,3.43
2019-01-05T16:49:35.468Z,3.27
2019-01-05T16:54:04.243Z,3.17
2019-01-05T16:56:36.933Z,2.97
2019-01-05T16:59:03.775Z,3.60
2019-01-05T17:01:34.455Z,3.30
2019-01-05T17:04:02.366Z,3.37
2019-01-05T17:08:31.099Z,3.80
2019-01-05T17:10:59.752Z,2.77
2019-01-05T17:13:26.579Z,3.40
2019-01-05T17:15:53.420Z,3.60
2019-01-05T17:18:26.227Z,3.60
2019-01-05T17:20:53.075Z,3.63
2019-01-05T17:25:21.920Z,3.37
2019-01-05T17:29:54.592Z,3.10
2019-01-05T17:32:22.211Z,3.10
2019-01-05T17:34:49.967Z,3.00
2019-01-05T17:37:17.721Z,3.47
2019-01-05T17:40:15.525Z,3.80
2019-01-05T17:42:44.204Z,3.40
2019-01-05T17:45:11.940Z,3.20
2019-01-05T17:47:40.590Z,3.20
2019-01-05T17:50:08.453Z,3.50
2019-01-05T17:52:36.375Z,2.70
2019-01-05T17:57:06.098Z,3.77
2019-01-05T17:59:33.952Z,4.00
2019-01-05T18:04:08.719Z,3.40
2019-01-05T18:06:42.528Z,3.10
2019-01-05T18:11:14.552Z,3.30
2019-01-05T18:13:42.172Z,3.67
2019-01-05T18:16:10.029Z,3.47
2019-01-05T18:18:37.838Z,3.83
2019-01-05T18:21:10.503Z,3.27
2019-01-05T18:25:40.146Z,4.07
2019-01-05T18:28:07.963Z,3.10
2019-01-05T18:30:40.782Z,3.20
2019-01-05T18:35:09.893Z,4.30
2019-01-05T18:37:37.621Z,4.07
2019-01-05T18:40:05.616Z,3.17
2019-01-05T18:43:38.421Z,4.37
2019-01-05T18:46:05.212Z,3.30
2019-01-05T18:48:39.822Z,3.43
2019-01-05T18:53:08.707Z,3.63
2019-01-05T18:55:36.527Z,3.60
2019-01-05T18:58:36.299Z,3.30
2019-01-05T19:01:04.090Z,3.37
2019-01-05T19:03:32.056Z,3.43
2019-01-05T19:06:13.637Z,3.77
2019-01-05T19:08:41.603Z,3.73
2019-01-05T19:11:09.208Z,3.00
2019-01-05T19:14:06.884Z,3.60
2019-01-05T19:18:39.615Z,3.40
2019-01-05T19:21:07.517Z,3.20
2019-01-05T19:23:43.121Z,3.53
2019-01-05T19:26:14.881Z,3.83
2019-01-05T19:28:41.682Z,4.23
2019-01-05T19:31:09.491Z,3.60
2019-01-05T19:33:42.255Z,3.77
2019-01-05T19:36:09.152Z,3.33
2019-01-05T19:38:37.023Z,4.03
2019-01-05T19:41:06.665Z,3.70
2019-01-05T19:43:34.446Z,3.73
2019-01-05T19:46:02.256Z,3.43
2019-01-05T19:48:30.055Z,3.97
2019-01-05T19:50:59.860Z,3.23
2019-01-05T19:54:32.519Z,3.60
2019-01-05T19:57:00.424Z,3.80
2019-01-05T19:59:28.410Z,3.53
2019-01-05T20:01:56.225Z,3.70
2019-01-05T20:04:40.871Z,3.30
2019-01-05T20:07:08.652Z,3.57
2019-01-05T20:11:41.247Z,4.37
2019-01-05T20:14:08.894Z,3.83
2019-01-05T20:16:38.752Z,3.33
2019-01-05T20:21:08.524Z,3.70
2019-01-05T20:23:43.159Z,3.77
2019-01-05T20:28:12.863Z,3.30
2019-01-05T20:30:51.508Z,3.80
2019-01-05T20:33:26.279Z,3.83
2019-01-05T20:35:59.080Z,3.77
2019-01-05T20:38:27.095Z,3.03
2019-01-05T20:40:55.103Z,3.20
2019-01-05T20:43:22.947Z,3.77
2019-01-05T20:45:53.571Z,3.70
2019-01-05T20:48:21.475Z,3.70
2019-01-05T20:50:49.270Z,3.50
2019-01-05T20:55:17.909Z,3.63
2019-01-05T20:57:48.615Z,3.30
2019-01-05T21:07:13.412Z,3.57
2019-01-05T21:11:48.260Z,3.97
2019-01-05T21:14:16.076Z,3.60
2019-01-05T21:18:45.031Z,3.60
2019-01-05T21:21:13.816Z,4.40
2019-01-05T21:25:44.496Z,4.03
2019-01-05T21:28:11.325Z,4.13
2019-01-05T21:30:57.020Z,3.57
2019-01-05T21:33:26.710Z,3.83
2019-01-05T21:36:04.387Z,4.00
2019-01-05T21:38:32.403Z,4.23
2019-01-05T21:43:06.138Z,3.67
2019-01-05T21:45:33.976Z,4.20
2019-01-05T21:48:01.781Z,3.67
2019-01-05T21:50:29.599Z,3.73
2019-01-05T21:53:01.317Z,4.47
2019-01-05T21:55:29.060Z,4.60
2019-01-05T21:57:59.636Z,3.50
2019-01-05T22:00:27.318Z,4.37
2019-01-05T22:02:56.064Z,3.73
2019-01-05T22:05:23.906Z,4.40
2019-01-05T22:08:10.648Z,4.63
2019-01-05T22:12:39.509Z,4.37
2019-01-05T22:15:07.370Z,3.57
2019-01-05T22:17:34.195Z,4.37
2019-01-05T22:20:05.926Z,3.90
2019-01-05T22:22:33.751Z,4.27
2019-01-05T22:25:01.658Z,4.03
2019-01-05T22:27:35.480Z,4.10
2019-01-05T22:32:08.217Z,3.93
2019-01-05T22:34:36.110Z,4.23
2019-01-05T22:37:10.857Z,3.80
2019-01-05T22:41:42.588Z,3.73
2019-01-05T22:44:09.432Z,4.50
2019-01-05T22:46:36.256Z,4.53
2019-01-05T22:49:09.077Z,4.10
2019-01-05T22:51:50.829Z,4.13
2019-01-05T22:54:18.487Z,3.90
2019-01-05T22:56:54.223Z,3.80
2019-01-05T22:59:21.030Z,4.30
2019-01-05T23:01:48.796Z,3.67
2019-01-05T23:04:17.469Z,4.10
2019-01-05T23:06:48.184Z,4.60
2019-01-05T23:09:18.864Z,3.90
2019-01-05T23:11:46.668Z,4.20
2019-01-05T23:14:18.287Z,4.50
2019-01-05T23:16:46.117Z,4.10
2019-01-05T23:19:18.939Z,4.80
2019-01-05T23:21:50.647Z,4.53
2019-01-05T23:24:33.399Z,5.17
2019-01-05T23:27:17.123Z,3.87
2019-01-05T23:31:45.962Z,4.60
2019-01-05T23:34:27.843Z,4.23
2019-01-05T23:37:14.663Z,4.23
2019-01-05T23:39:47.471Z,3.70
2019-01-05T23:42:23.096Z,4.43
2019-01-05T23:44:49.939Z,4.70
2019-01-05T23:49:19.656Z,3.37
2019-01-05T23:53:51.368Z,4.30
2019-01-05T23:56:20.057Z,4.17
2019-01-05T23:58:47.737Z,3.87
